Sprague, Nebraska
Current Conditions -  °F | °C
As of 8:03 AM on Wednesday 26 Nov 2014 (Local Time) from KLNK Reporting Station
Broken Clouds Broken Clouds  
Wind Chill: 25°   Ceiling: 2600
Heat Index: 36°   Visibility: 10mi
Dew Point: 26°   Wind: 22mph
Humidity: 67%   Direction: 310°NW
Pressure: 29.99"   Gusts: 36mph
Location:  40.63°N, 96.74°W
Report Text: KLNK 261403Z 31019G31KT 10SM BKN026 BKN080 02/M03 A2999 RMK AO2 PK WND 31031/1400 T00221033
Loading
Personal Weather Stations






























Interactive Weather Map New forecast layout! Learn more

10-Day Weather Forecast

Advertisements
Track Severe Weather on mobile